sensor_id;sensor_type;location;lat;lon;timestamp;P1;durP1;ratioP1;P2;durP2;ratioP2
13483;SDS011;6814;57.786;12.080;2022-10-16T00:00:03;35.17;;;18.50;;
13483;SDS011;6814;57.786;12.080;2022-10-16T00:02:29;36.27;;;18.53;;
13483;SDS011;6814;57.786;12.080;2022-10-16T00:04:55;32.03;;;17.93;;
13483;SDS011;6814;57.786;12.080;2022-10-16T00:07:22;41.33;;;18.67;;
13483;SDS011;6814;57.786;12.080;2022-10-16T00:09:48;31.37;;;16.20;;
13483;SDS011;6814;57.786;12.080;2022-10-16T00:12:14;29.43;;;15.90;;
13483;SDS011;6814;57.786;12.080;2022-10-16T00:14:41;29.10;;;14.87;;
13483;SDS011;6814;57.786;12.080;2022-10-16T00:17:10;31.57;;;14.17;;
13483;SDS011;6814;57.786;12.080;2022-10-16T00:19:36;27.23;;;13.43;;
13483;SDS011;6814;57.786;12.080;2022-10-16T00:22:03;28.80;;;14.17;;
13483;SDS011;6814;57.786;12.080;2022-10-16T00:24:29;31.63;;;12.33;;
13483;SDS011;6814;57.786;12.080;2022-10-16T00:26:56;28.27;;;12.77;;
13483;SDS011;6814;57.786;12.080;2022-10-16T00:29:22;27.37;;;11.83;;
13483;SDS011;6814;57.786;12.080;2022-10-16T00:31:48;19.40;;;10.33;;
13483;SDS011;6814;57.786;12.080;2022-10-16T00:34:16;23.20;;;9.77;;
13483;SDS011;6814;57.786;12.080;2022-10-16T00:36:42;15.30;;;9.43;;
13483;SDS011;6814;57.786;12.080;2022-10-16T00:39:09;26.17;;;10.43;;
13483;SDS011;6814;57.786;12.080;2022-10-16T00:41:35;16.87;;;8.50;;
13483;SDS011;6814;57.786;12.080;2022-10-16T00:44:02;20.70;;;8.63;;
13483;SDS011;6814;57.786;12.080;2022-10-16T00:46:29;16.73;;;8.13;;
13483;SDS011;6814;57.786;12.080;2022-10-16T00:49:00;21.83;;;8.57;;
13483;SDS011;6814;57.786;12.080;2022-10-16T00:51:30;21.17;;;7.60;;
13483;SDS011;6814;57.786;12.080;2022-10-16T00:53:57;18.17;;;6.60;;
13483;SDS011;6814;57.786;12.080;2022-10-16T00:56:23;15.67;;;7.67;;
13483;SDS011;6814;57.786;12.080;2022-10-16T00:58:50;15.27;;;5.93;;
13483;SDS011;6814;57.786;12.080;2022-10-16T01:01:16;19.03;;;6.67;;
13483;SDS011;6814;57.786;12.080;2022-10-16T01:03:42;17.60;;;5.97;;
13483;SDS011;6814;57.786;12.080;2022-10-16T01:06:17;14.77;;;5.90;;
13483;SDS011;6814;57.786;12.080;2022-10-16T01:08:49;13.47;;;5.17;;
13483;SDS011;6814;57.786;12.080;2022-10-16T01:11:22;12.67;;;5.43;;
13483;SDS011;6814;57.786;12.080;2022-10-16T01:13:50;15.97;;;5.87;;
13483;SDS011;6814;57.786;12.080;2022-10-16T01:16:21;17.30;;;6.10;;
13483;SDS011;6814;57.786;12.080;2022-10-16T01:18:49;19.47;;;6.20;;
13483;SDS011;6814;57.786;12.080;2022-10-16T01:21:20;16.20;;;5.87;;
13483;SDS011;6814;57.786;12.080;2022-10-16T01:23:51;27.10;;;5.33;;
13483;SDS011;6814;57.786;12.080;2022-10-16T01:26:31;16.37;;;4.80;;
13483;SDS011;6814;57.786;12.080;2022-10-16T01:29:03;18.33;;;5.43;;
13483;SDS011;6814;57.786;12.080;2022-10-16T01:31:32;15.47;;;4.67;;
13483;SDS011;6814;57.786;12.080;2022-10-16T01:34:00;21.00;;;5.10;;
13483;SDS011;6814;57.786;12.080;2022-10-16T01:36:30;14.57;;;5.50;;
13483;SDS011;6814;57.786;12.080;2022-10-16T01:38:58;17.70;;;4.90;;
13483;SDS011;6814;57.786;12.080;2022-10-16T01:41:26;13.50;;;5.23;;
13483;SDS011;6814;57.786;12.080;2022-10-16T01:43:56;23.33;;;5.40;;
13483;SDS011;6814;57.786;12.080;2022-10-16T01:46:25;16.93;;;5.87;;
13483;SDS011;6814;57.786;12.080;2022-10-16T01:48:52;15.43;;;5.10;;
13483;SDS011;6814;57.786;12.080;2022-10-16T01:51:19;19.50;;;5.70;;
13483;SDS011;6814;57.786;12.080;2022-10-16T01:53:48;16.43;;;5.00;;
13483;SDS011;6814;57.786;12.080;2022-10-16T01:56:15;15.07;;;5.13;;
13483;SDS011;6814;57.786;12.080;2022-10-16T01:58:44;15.37;;;5.10;;
13483;SDS011;6814;57.786;12.080;2022-10-16T02:01:12;15.43;;;4.50;;
13483;SDS011;6814;57.786;12.080;2022-10-16T02:03:40;13.30;;;4.37;;
13483;SDS011;6814;57.786;12.080;2022-10-16T02:06:08;17.10;;;5.20;;
13483;SDS011;6814;57.786;12.080;2022-10-16T02:08:35;12.70;;;4.70;;
13483;SDS011;6814;57.786;12.080;2022-10-16T02:11:02;16.87;;;4.27;;
13483;SDS011;6814;57.786;12.080;2022-10-16T02:13:30;13.83;;;4.43;;
13483;SDS011;6814;57.786;12.080;2022-10-16T02:15:57;16.30;;;5.10;;
13483;SDS011;6814;57.786;12.080;2022-10-16T02:18:23;20.23;;;5.13;;
13483;SDS011;6814;57.786;12.080;2022-10-16T02:20:56;15.17;;;4.27;;
13483;SDS011;6814;57.786;12.080;2022-10-16T02:23:24;18.93;;;4.93;;
13483;SDS011;6814;57.786;12.080;2022-10-16T02:25:53;15.77;;;5.33;;
13483;SDS011;6814;57.786;12.080;2022-10-16T02:28:22;23.67;;;4.77;;
13483;SDS011;6814;57.786;12.080;2022-10-16T02:30:51;22.70;;;4.63;;
13483;SDS011;6814;57.786;12.080;2022-10-16T02:33:19;15.83;;;5.00;;
13483;SDS011;6814;57.786;12.080;2022-10-16T02:35:47;17.73;;;4.70;;
13483;SDS011;6814;57.786;12.080;2022-10-16T02:38:17;23.63;;;5.17;;
13483;SDS011;6814;57.786;12.080;2022-10-16T02:40:44;10.80;;;5.00;;
13483;SDS011;6814;57.786;12.080;2022-10-16T02:43:11;20.60;;;5.20;;
13483;SDS011;6814;57.786;12.080;2022-10-16T02:45:38;18.83;;;4.70;;
13483;SDS011;6814;57.786;12.080;2022-10-16T02:48:04;14.23;;;4.67;;
13483;SDS011;6814;57.786;12.080;2022-10-16T02:50:31;19.30;;;4.90;;
13483;SDS011;6814;57.786;12.080;2022-10-16T02:52:57;15.73;;;4.90;;
13483;SDS011;6814;57.786;12.080;2022-10-16T02:55:25;16.67;;;5.27;;
13483;SDS011;6814;57.786;12.080;2022-10-16T02:57:52;16.43;;;4.63;;
13483;SDS011;6814;57.786;12.080;2022-10-16T03:00:19;18.60;;;5.60;;
13483;SDS011;6814;57.786;12.080;2022-10-16T03:02:45;17.93;;;4.63;;
13483;SDS011;6814;57.786;12.080;2022-10-16T03:05:12;22.97;;;5.63;;
13483;SDS011;6814;57.786;12.080;2022-10-16T03:07:38;22.43;;;6.00;;
13483;SDS011;6814;57.786;12.080;2022-10-16T03:10:05;17.77;;;4.80;;
13483;SDS011;6814;57.786;12.080;2022-10-16T03:12:33;19.00;;;5.07;;
13483;SDS011;6814;57.786;12.080;2022-10-16T03:14:59;19.47;;;5.80;;
13483;SDS011;6814;57.786;12.080;2022-10-16T03:17:26;13.70;;;4.80;;
13483;SDS011;6814;57.786;12.080;2022-10-16T03:19:52;11.80;;;4.23;;
13483;SDS011;6814;57.786;12.080;2022-10-16T03:22:19;18.00;;;4.60;;
13483;SDS011;6814;57.786;12.080;2022-10-16T03:24:45;25.73;;;5.63;;
13483;SDS011;6814;57.786;12.080;2022-10-16T03:27:11;15.97;;;4.53;;
13483;SDS011;6814;57.786;12.080;2022-10-16T03:29:39;19.47;;;4.63;;
13483;SDS011;6814;57.786;12.080;2022-10-16T03:32:05;18.03;;;4.47;;
13483;SDS011;6814;57.786;12.080;2022-10-16T03:34:32;17.00;;;5.20;;
13483;SDS011;6814;57.786;12.080;2022-10-16T03:36:58;15.73;;;5.03;;
13483;SDS011;6814;57.786;12.080;2022-10-16T03:39:25;16.03;;;4.77;;
13483;SDS011;6814;57.786;12.080;2022-10-16T03:41:52;13.80;;;4.53;;
13483;SDS011;6814;57.786;12.080;2022-10-16T03:44:18;15.87;;;5.63;;
13483;SDS011;6814;57.786;12.080;2022-10-16T03:46:46;23.03;;;4.53;;
13483;SDS011;6814;57.786;12.080;2022-10-16T03:49:12;17.53;;;5.10;;
13483;SDS011;6814;57.786;12.080;2022-10-16T03:51:39;17.20;;;4.80;;
13483;SDS011;6814;57.786;12.080;2022-10-16T03:54:05;15.97;;;5.20;;
13483;SDS011;6814;57.786;12.080;2022-10-16T03:56:31;15.90;;;4.90;;
13483;SDS011;6814;57.786;12.080;2022-10-16T03:58:58;19.10;;;5.37;;
13483;SDS011;6814;57.786;12.080;2022-10-16T04:01:24;24.17;;;6.00;;
13483;SDS011;6814;57.786;12.080;2022-10-16T04:03:52;19.70;;;6.23;;
13483;SDS011;6814;57.786;12.080;2022-10-16T04:06:18;25.17;;;6.87;;
13483;SDS011;6814;57.786;12.080;2022-10-16T04:08:45;27.43;;;6.97;;
13483;SDS011;6814;57.786;12.080;2022-10-16T04:11:11;22.17;;;6.17;;
13483;SDS011;6814;57.786;12.080;2022-10-16T04:13:38;27.50;;;5.90;;
13483;SDS011;6814;57.786;12.080;2022-10-16T04:16:04;18.13;;;5.80;;
13483;SDS011;6814;57.786;12.080;2022-10-16T04:18:30;20.77;;;5.57;;
13483;SDS011;6814;57.786;12.080;2022-10-16T04:21:02;21.27;;;4.80;;
13483;SDS011;6814;57.786;12.080;2022-10-16T04:23:36;19.30;;;5.20;;
13483;SDS011;6814;57.786;12.080;2022-10-16T04:26:05;20.17;;;5.00;;
13483;SDS011;6814;57.786;12.080;2022-10-16T04:28:34;15.17;;;4.67;;
13483;SDS011;6814;57.786;12.080;2022-10-16T04:31:03;29.50;;;6.07;;
13483;SDS011;6814;57.786;12.080;2022-10-16T04:33:29;21.33;;;5.27;;
13483;SDS011;6814;57.786;12.080;2022-10-16T04:35:56;17.73;;;4.97;;
13483;SDS011;6814;57.786;12.080;2022-10-16T04:38:30;19.53;;;5.60;;
13483;SDS011;6814;57.786;12.080;2022-10-16T04:41:08;17.63;;;6.07;;
13483;SDS011;6814;57.786;12.080;2022-10-16T04:43:44;19.97;;;4.80;;
13483;SDS011;6814;57.786;12.080;2022-10-16T04:46:11;16.20;;;4.93;;
13483;SDS011;6814;57.786;12.080;2022-10-16T04:48:39;20.13;;;5.00;;
13483;SDS011;6814;57.786;12.080;2022-10-16T04:51:12;22.70;;;5.00;;
13483;SDS011;6814;57.786;12.080;2022-10-16T04:53:40;16.47;;;5.20;;
13483;SDS011;6814;57.786;12.080;2022-10-16T04:56:07;24.20;;;5.70;;
13483;SDS011;6814;57.786;12.080;2022-10-16T04:58:37;25.30;;;6.27;;
13483;SDS011;6814;57.786;12.080;2022-10-16T05:01:06;27.53;;;5.80;;
13483;SDS011;6814;57.786;12.080;2022-10-16T05:03:40;23.80;;;6.07;;
13483;SDS011;6814;57.786;12.080;2022-10-16T05:06:09;22.40;;;5.80;;
13483;SDS011;6814;57.786;12.080;2022-10-16T05:08:41;21.83;;;5.83;;
13483;SDS011;6814;57.786;12.080;2022-10-16T05:11:11;20.20;;;5.20;;
13483;SDS011;6814;57.786;12.080;2022-10-16T05:13:41;22.07;;;5.47;;
13483;SDS011;6814;57.786;12.080;2022-10-16T05:16:18;18.57;;;5.77;;
13483;SDS011;6814;57.786;12.080;2022-10-16T05:18:46;23.83;;;6.03;;
13483;SDS011;6814;57.786;12.080;2022-10-16T05:21:19;21.77;;;6.30;;
13483;SDS011;6814;57.786;12.080;2022-10-16T05:23:48;12.40;;;5.47;;
13483;SDS011;6814;57.786;12.080;2022-10-16T05:26:19;27.83;;;6.23;;
13483;SDS011;6814;57.786;12.080;2022-10-16T05:28:49;26.97;;;6.17;;
13483;SDS011;6814;57.786;12.080;2022-10-16T05:31:19;23.83;;;6.17;;
13483;SDS011;6814;57.786;12.080;2022-10-16T05:33:47;28.93;;;7.33;;
13483;SDS011;6814;57.786;12.080;2022-10-16T05:36:16;22.90;;;6.60;;
13483;SDS011;6814;57.786;12.080;2022-10-16T05:38:43;26.50;;;7.10;;
13483;SDS011;6814;57.786;12.080;2022-10-16T05:41:20;25.27;;;6.83;;
13483;SDS011;6814;57.786;12.080;2022-10-16T05:43:59;22.93;;;6.70;;
13483;SDS011;6814;57.786;12.080;2022-10-16T05:46:26;25.03;;;7.73;;
13483;SDS011;6814;57.786;12.080;2022-10-16T05:48:54;16.80;;;6.87;;
13483;SDS011;6814;57.786;12.080;2022-10-16T05:51:21;25.70;;;6.93;;
13483;SDS011;6814;57.786;12.080;2022-10-16T05:53:47;24.03;;;7.20;;
13483;SDS011;6814;57.786;12.080;2022-10-16T05:56:14;25.93;;;7.67;;
13483;SDS011;6814;57.786;12.080;2022-10-16T05:58:42;20.60;;;7.57;;
13483;SDS011;6814;57.786;12.080;2022-10-16T06:01:10;27.60;;;8.33;;
13483;SDS011;6814;57.786;12.080;2022-10-16T06:03:36;31.17;;;9.43;;
13483;SDS011;6814;57.786;12.080;2022-10-16T06:06:09;26.00;;;8.67;;
13483;SDS011;6814;57.786;12.080;2022-10-16T06:08:36;25.17;;;8.87;;
13483;SDS011;6814;57.786;12.080;2022-10-16T06:11:03;28.23;;;9.43;;
13483;SDS011;6814;57.786;12.080;2022-10-16T06:13:29;31.60;;;10.03;;
13483;SDS011;6814;57.786;12.080;2022-10-16T06:15:58;33.67;;;11.43;;
13483;SDS011;6814;57.786;12.080;2022-10-16T06:18:25;28.60;;;10.73;;
13483;SDS011;6814;57.786;12.080;2022-10-16T06:20:52;31.87;;;11.90;;
13483;SDS011;6814;57.786;12.080;2022-10-16T06:23:18;33.17;;;11.03;;
13483;SDS011;6814;57.786;12.080;2022-10-16T06:25:45;30.63;;;11.73;;
13483;SDS011;6814;57.786;12.080;2022-10-16T06:28:11;27.47;;;11.53;;
13483;SDS011;6814;57.786;12.080;2022-10-16T06:30:39;26.33;;;12.10;;
13483;SDS011;6814;57.786;12.080;2022-10-16T06:33:07;31.87;;;12.90;;
13483;SDS011;6814;57.786;12.080;2022-10-16T06:35:33;37.57;;;12.30;;
13483;SDS011;6814;57.786;12.080;2022-10-16T06:37:59;32.47;;;11.43;;
13483;SDS011;6814;57.786;12.080;2022-10-16T06:40:26;34.97;;;11.73;;
13483;SDS011;6814;57.786;12.080;2022-10-16T06:42:54;23.90;;;11.10;;
13483;SDS011;6814;57.786;12.080;2022-10-16T06:45:20;26.97;;;11.00;;
13483;SDS011;6814;57.786;12.080;2022-10-16T06:47:47;30.50;;;11.40;;
13483;SDS011;6814;57.786;12.080;2022-10-16T06:50:15;22.43;;;10.47;;
13483;SDS011;6814;57.786;12.080;2022-10-16T06:52:41;29.80;;;10.43;;
13483;SDS011;6814;57.786;12.080;2022-10-16T06:55:08;25.17;;;9.73;;
13483;SDS011;6814;57.786;12.080;2022-10-16T06:57:34;23.33;;;8.90;;
13483;SDS011;6814;57.786;12.080;2022-10-16T07:00:00;23.90;;;9.53;;
13483;SDS011;6814;57.786;12.080;2022-10-16T07:02:27;21.73;;;9.23;;
13483;SDS011;6814;57.786;12.080;2022-10-16T07:04:53;23.30;;;9.00;;
13483;SDS011;6814;57.786;12.080;2022-10-16T07:07:22;21.93;;;9.40;;
13483;SDS011;6814;57.786;12.080;2022-10-16T07:09:49;20.43;;;8.30;;
13483;SDS011;6814;57.786;12.080;2022-10-16T07:12:16;18.97;;;7.40;;
13483;SDS011;6814;57.786;12.080;2022-10-16T07:14:42;22.53;;;8.43;;
13483;SDS011;6814;57.786;12.080;2022-10-16T07:17:10;24.47;;;8.10;;
13483;SDS011;6814;57.786;12.080;2022-10-16T07:19:37;14.23;;;6.93;;
13483;SDS011;6814;57.786;12.080;2022-10-16T07:22:04;17.43;;;7.40;;
13483;SDS011;6814;57.786;12.080;2022-10-16T07:24:56;20.70;;;6.83;;
13483;SDS011;6814;57.786;12.080;2022-10-16T07:27:24;17.33;;;6.93;;
13483;SDS011;6814;57.786;12.080;2022-10-16T07:29:52;22.67;;;6.70;;
13483;SDS011;6814;57.786;12.080;2022-10-16T07:32:22;14.07;;;6.67;;
13483;SDS011;6814;57.786;12.080;2022-10-16T07:35:04;15.47;;;5.83;;
13483;SDS011;6814;57.786;12.080;2022-10-16T07:37:35;18.67;;;5.83;;
13483;SDS011;6814;57.786;12.080;2022-10-16T07:40:09;16.33;;;6.10;;
13483;SDS011;6814;57.786;12.080;2022-10-16T07:42:38;13.73;;;5.03;;
13483;SDS011;6814;57.786;12.080;2022-10-16T07:45:11;15.53;;;5.23;;
13483;SDS011;6814;57.786;12.080;2022-10-16T07:47:41;11.23;;;4.60;;
13483;SDS011;6814;57.786;12.080;2022-10-16T07:50:17;13.03;;;4.80;;
13483;SDS011;6814;57.786;12.080;2022-10-16T07:52:43;11.63;;;3.67;;
13483;SDS011;6814;57.786;12.080;2022-10-16T07:55:11;13.87;;;3.70;;
13483;SDS011;6814;57.786;12.080;2022-10-16T07:57:38;11.33;;;3.97;;
13483;SDS011;6814;57.786;12.080;2022-10-16T08:00:05;10.20;;;2.93;;
13483;SDS011;6814;57.786;12.080;2022-10-16T08:02:31;11.43;;;3.63;;
13483;SDS011;6814;57.786;12.080;2022-10-16T08:04:58;8.53;;;3.20;;
13483;SDS011;6814;57.786;12.080;2022-10-16T08:07:25;13.20;;;3.53;;
13483;SDS011;6814;57.786;12.080;2022-10-16T08:09:51;11.07;;;3.00;;
13483;SDS011;6814;57.786;12.080;2022-10-16T08:12:19;9.67;;;3.33;;
13483;SDS011;6814;57.786;12.080;2022-10-16T08:14:45;14.37;;;3.40;;
13483;SDS011;6814;57.786;12.080;2022-10-16T08:17:13;12.60;;;4.07;;
13483;SDS011;6814;57.786;12.080;2022-10-16T08:19:40;11.63;;;3.40;;
13483;SDS011;6814;57.786;12.080;2022-10-16T08:22:06;9.00;;;2.73;;
13483;SDS011;6814;57.786;12.080;2022-10-16T08:24:32;12.17;;;3.97;;
13483;SDS011;6814;57.786;12.080;2022-10-16T08:26:59;14.43;;;3.40;;
13483;SDS011;6814;57.786;12.080;2022-10-16T08:29:28;9.97;;;3.30;;
13483;SDS011;6814;57.786;12.080;2022-10-16T08:31:54;11.23;;;3.03;;
13483;SDS011;6814;57.786;12.080;2022-10-16T08:34:21;13.83;;;3.30;;
13483;SDS011;6814;57.786;12.080;2022-10-16T08:36:47;11.97;;;2.93;;
13483;SDS011;6814;57.786;12.080;2022-10-16T08:39:14;11.13;;;3.07;;
13483;SDS011;6814;57.786;12.080;2022-10-16T08:44:39;9.43;;;3.10;;
13483;SDS011;6814;57.786;12.080;2022-10-16T08:47:12;8.87;;;2.93;;
13483;SDS011;6814;57.786;12.080;2022-10-16T08:49:39;10.67;;;3.20;;
13483;SDS011;6814;57.786;12.080;2022-10-16T08:52:08;12.37;;;2.87;;
13483;SDS011;6814;57.786;12.080;2022-10-16T08:54:37;9.63;;;2.63;;
13483;SDS011;6814;57.786;12.080;2022-10-16T08:57:07;13.63;;;2.73;;
13483;SDS011;6814;57.786;12.080;2022-10-16T08:59:35;10.43;;;2.13;;
13483;SDS011;6814;57.786;12.080;2022-10-16T09:02:08;10.53;;;2.87;;
13483;SDS011;6814;57.786;12.080;2022-10-16T09:04:47;10.63;;;2.83;;
13483;SDS011;6814;57.786;12.080;2022-10-16T09:07:18;13.87;;;2.60;;
13483;SDS011;6814;57.786;12.080;2022-10-16T09:09:50;11.53;;;2.70;;
13483;SDS011;6814;57.786;12.080;2022-10-16T09:12:21;9.53;;;2.60;;
13483;SDS011;6814;57.786;12.080;2022-10-16T09:14:52;12.17;;;2.80;;
13483;SDS011;6814;57.786;12.080;2022-10-16T09:17:27;10.53;;;2.73;;
13483;SDS011;6814;57.786;12.080;2022-10-16T09:19:57;12.90;;;3.00;;
13483;SDS011;6814;57.786;12.080;2022-10-16T09:22:27;13.37;;;2.90;;
13483;SDS011;6814;57.786;12.080;2022-10-16T09:24:59;16.77;;;3.20;;
13483;SDS011;6814;57.786;12.080;2022-10-16T09:27:28;14.63;;;3.50;;
13483;SDS011;6814;57.786;12.080;2022-10-16T09:30:00;11.47;;;3.10;;
13483;SDS011;6814;57.786;12.080;2022-10-16T09:32:29;15.87;;;3.53;;
13483;SDS011;6814;57.786;12.080;2022-10-16T09:35:01;16.77;;;3.73;;
13483;SDS011;6814;57.786;12.080;2022-10-16T09:37:28;12.67;;;3.00;;
13483;SDS011;6814;57.786;12.080;2022-10-16T09:39:54;13.70;;;3.10;;
13483;SDS011;6814;57.786;12.080;2022-10-16T09:42:21;13.37;;;2.83;;
13483;SDS011;6814;57.786;12.080;2022-10-16T09:44:55;12.83;;;3.70;;
13483;SDS011;6814;57.786;12.080;2022-10-16T09:47:23;11.93;;;3.17;;
13483;SDS011;6814;57.786;12.080;2022-10-16T09:49:52;15.87;;;3.20;;
13483;SDS011;6814;57.786;12.080;2022-10-16T09:52:22;16.20;;;3.23;;
13483;SDS011;6814;57.786;12.080;2022-10-16T09:54:59;14.83;;;3.03;;
13483;SDS011;6814;57.786;12.080;2022-10-16T09:57:34;11.93;;;3.30;;
13483;SDS011;6814;57.786;12.080;2022-10-16T10:00:09;12.03;;;3.43;;
13483;SDS011;6814;57.786;12.080;2022-10-16T10:02:42;17.63;;;3.63;;
13483;SDS011;6814;57.786;12.080;2022-10-16T10:05:18;13.67;;;3.53;;
13483;SDS011;6814;57.786;12.080;2022-10-16T10:07:53;11.60;;;2.90;;
13483;SDS011;6814;57.786;12.080;2022-10-16T10:10:21;15.97;;;3.10;;
13483;SDS011;6814;57.786;12.080;2022-10-16T10:12:51;12.10;;;3.10;;
13483;SDS011;6814;57.786;12.080;2022-10-16T10:15:34;12.77;;;3.10;;
13483;SDS011;6814;57.786;12.080;2022-10-16T10:18:02;11.43;;;2.97;;
13483;SDS011;6814;57.786;12.080;2022-10-16T10:20:31;18.73;;;3.60;;
13483;SDS011;6814;57.786;12.080;2022-10-16T10:22:59;13.13;;;3.60;;
13483;SDS011;6814;57.786;12.080;2022-10-16T10:25:31;13.27;;;3.50;;
13483;SDS011;6814;57.786;12.080;2022-10-16T10:28:06;14.10;;;3.00;;
13483;SDS011;6814;57.786;12.080;2022-10-16T10:30:35;12.73;;;3.23;;
13483;SDS011;6814;57.786;12.080;2022-10-16T10:33:16;13.00;;;3.10;;
13483;SDS011;6814;57.786;12.080;2022-10-16T10:35:48;12.30;;;3.93;;
13483;SDS011;6814;57.786;12.080;2022-10-16T10:38:25;12.77;;;3.20;;
13483;SDS011;6814;57.786;12.080;2022-10-16T10:40:56;12.30;;;3.10;;
13483;SDS011;6814;57.786;12.080;2022-10-16T10:43:29;14.87;;;3.20;;
13483;SDS011;6814;57.786;12.080;2022-10-16T10:45:59;13.93;;;3.60;;
13483;SDS011;6814;57.786;12.080;2022-10-16T10:51:15;14.10;;;3.03;;
13483;SDS011;6814;57.786;12.080;2022-10-16T10:53:47;12.30;;;3.80;;
13483;SDS011;6814;57.786;12.080;2022-10-16T10:56:20;14.80;;;3.33;;
13483;SDS011;6814;57.786;12.080;2022-10-16T10:58:55;15.87;;;3.50;;
13483;SDS011;6814;57.786;12.080;2022-10-16T11:01:25;12.60;;;3.47;;
13483;SDS011;6814;57.786;12.080;2022-10-16T11:03:58;9.43;;;2.60;;
13483;SDS011;6814;57.786;12.080;2022-10-16T11:20:04;13.80;;;3.97;;
13483;SDS011;6814;57.786;12.080;2022-10-16T11:22:32;14.37;;;4.00;;
13483;SDS011;6814;57.786;12.080;2022-10-16T11:25:02;15.83;;;4.07;;
13483;SDS011;6814;57.786;12.080;2022-10-16T11:27:34;17.60;;;3.90;;
13483;SDS011;6814;57.786;12.080;2022-10-16T11:30:02;16.20;;;4.43;;
13483;SDS011;6814;57.786;12.080;2022-10-16T11:32:31;17.07;;;4.13;;
13483;SDS011;6814;57.786;12.080;2022-10-16T11:34:59;18.70;;;4.17;;
13483;SDS011;6814;57.786;12.080;2022-10-16T11:37:29;16.90;;;4.17;;
13483;SDS011;6814;57.786;12.080;2022-10-16T11:39:58;15.57;;;3.63;;
13483;SDS011;6814;57.786;12.080;2022-10-16T11:42:33;18.27;;;4.33;;
13483;SDS011;6814;57.786;12.080;2022-10-16T11:45:04;19.90;;;3.67;;
13483;SDS011;6814;57.786;12.080;2022-10-16T11:47:35;19.20;;;3.73;;
13483;SDS011;6814;57.786;12.080;2022-10-16T11:50:02;14.93;;;3.70;;
13483;SDS011;6814;57.786;12.080;2022-10-16T11:52:33;17.60;;;4.60;;
13483;SDS011;6814;57.786;12.080;2022-10-16T11:55:13;20.57;;;3.67;;
13483;SDS011;6814;57.786;12.080;2022-10-16T11:57:42;20.90;;;3.70;;
13483;SDS011;6814;57.786;12.080;2022-10-16T12:00:14;12.37;;;3.40;;
13483;SDS011;6814;57.786;12.080;2022-10-16T12:02:49;16.03;;;3.53;;
13483;SDS011;6814;57.786;12.080;2022-10-16T12:05:19;17.50;;;3.03;;
13483;SDS011;6814;57.786;12.080;2022-10-16T12:07:50;11.50;;;3.10;;
13483;SDS011;6814;57.786;12.080;2022-10-16T12:10:20;4.17;;;1.40;;
13483;SDS011;6814;57.786;12.080;2022-10-16T12:12:47;4.53;;;1.40;;
13483;SDS011;6814;57.786;12.080;2022-10-16T12:15:18;9.03;;;1.50;;
13483;SDS011;6814;57.786;12.080;2022-10-16T12:17:45;4.97;;;1.40;;
13483;SDS011;6814;57.786;12.080;2022-10-16T12:20:19;7.93;;;1.70;;
13483;SDS011;6814;57.786;12.080;2022-10-16T12:22:47;10.27;;;2.07;;
13483;SDS011;6814;57.786;12.080;2022-10-16T12:25:20;10.63;;;2.33;;
13483;SDS011;6814;57.786;12.080;2022-10-16T12:27:53;18.33;;;2.80;;
13483;SDS011;6814;57.786;12.080;2022-10-16T12:30:20;16.90;;;3.50;;
13483;SDS011;6814;57.786;12.080;2022-10-16T12:32:52;17.50;;;3.37;;
13483;SDS011;6814;57.786;12.080;2022-10-16T12:35:20;22.37;;;4.13;;
13483;SDS011;6814;57.786;12.080;2022-10-16T12:37:47;36.73;;;5.83;;
13483;SDS011;6814;57.786;12.080;2022-10-16T12:40:15;38.73;;;5.23;;
13483;SDS011;6814;57.786;12.080;2022-10-16T12:42:44;35.37;;;5.37;;
13483;SDS011;6814;57.786;12.080;2022-10-16T12:45:23;31.83;;;5.17;;
13483;SDS011;6814;57.786;12.080;2022-10-16T12:47:51;27.77;;;4.60;;
13483;SDS011;6814;57.786;12.080;2022-10-16T12:50:26;22.17;;;3.97;;
13483;SDS011;6814;57.786;12.080;2022-10-16T12:52:53;21.03;;;3.63;;
13483;SDS011;6814;57.786;12.080;2022-10-16T12:55:21;15.80;;;3.47;;
13483;SDS011;6814;57.786;12.080;2022-10-16T12:57:56;13.57;;;2.50;;
13483;SDS011;6814;57.786;12.080;2022-10-16T13:00:28;11.37;;;2.73;;
13483;SDS011;6814;57.786;12.080;2022-10-16T13:05:42;14.90;;;2.77;;
13483;SDS011;6814;57.786;12.080;2022-10-16T13:08:20;15.87;;;3.00;;
13483;SDS011;6814;57.786;12.080;2022-10-16T13:10:54;10.37;;;2.73;;
13483;SDS011;6814;57.786;12.080;2022-10-16T13:13:37;12.50;;;3.50;;
13483;SDS011;6814;57.786;12.080;2022-10-16T13:16:09;8.73;;;2.10;;
13483;SDS011;6814;57.786;12.080;2022-10-16T13:18:42;9.73;;;3.00;;
13483;SDS011;6814;57.786;12.080;2022-10-16T13:21:16;10.83;;;2.23;;
13483;SDS011;6814;57.786;12.080;2022-10-16T13:23:46;8.87;;;2.20;;
13483;SDS011;6814;57.786;12.080;2022-10-16T13:26:16;11.50;;;2.50;;
13483;SDS011;6814;57.786;12.080;2022-10-16T13:28:50;10.63;;;2.53;;
13483;SDS011;6814;57.786;12.080;2022-10-16T13:31:18;8.73;;;1.97;;
13483;SDS011;6814;57.786;12.080;2022-10-16T13:33:47;14.50;;;2.53;;
13483;SDS011;6814;57.786;12.080;2022-10-16T13:36:19;10.03;;;2.13;;
13483;SDS011;6814;57.786;12.080;2022-10-16T13:38:46;10.20;;;2.63;;
13483;SDS011;6814;57.786;12.080;2022-10-16T13:41:13;9.57;;;2.30;;
13483;SDS011;6814;57.786;12.080;2022-10-16T13:43:41;10.73;;;2.80;;
13483;SDS011;6814;57.786;12.080;2022-10-16T13:46:12;7.93;;;2.10;;
13483;SDS011;6814;57.786;12.080;2022-10-16T13:48:39;9.27;;;2.60;;
13483;SDS011;6814;57.786;12.080;2022-10-16T13:51:06;12.57;;;2.70;;
13483;SDS011;6814;57.786;12.080;2022-10-16T13:53:34;11.20;;;2.67;;
13483;SDS011;6814;57.786;12.080;2022-10-16T13:56:02;11.17;;;2.27;;
13483;SDS011;6814;57.786;12.080;2022-10-16T13:58:29;7.97;;;2.60;;
13483;SDS011;6814;57.786;12.080;2022-10-16T14:00:56;10.80;;;2.73;;
13483;SDS011;6814;57.786;12.080;2022-10-16T14:03:25;8.63;;;2.13;;
13483;SDS011;6814;57.786;12.080;2022-10-16T14:05:52;9.67;;;2.70;;
13483;SDS011;6814;57.786;12.080;2022-10-16T14:08:20;13.03;;;2.50;;
13483;SDS011;6814;57.786;12.080;2022-10-16T14:10:54;15.97;;;3.07;;
13483;SDS011;6814;57.786;12.080;2022-10-16T14:13:28;10.07;;;2.63;;
13483;SDS011;6814;57.786;12.080;2022-10-16T14:15:59;10.77;;;2.83;;
13483;SDS011;6814;57.786;12.080;2022-10-16T14:18:28;11.97;;;2.83;;
13483;SDS011;6814;57.786;12.080;2022-10-16T14:21:02;12.10;;;2.70;;
13483;SDS011;6814;57.786;12.080;2022-10-16T14:23:29;11.60;;;2.53;;
13483;SDS011;6814;57.786;12.080;2022-10-16T14:26:05;14.10;;;3.13;;
13483;SDS011;6814;57.786;12.080;2022-10-16T14:29:00;11.50;;;2.33;;
13483;SDS011;6814;57.786;12.080;2022-10-16T14:31:30;7.23;;;2.50;;
13483;SDS011;6814;57.786;12.080;2022-10-16T14:34:04;14.73;;;3.10;;
13483;SDS011;6814;57.786;12.080;2022-10-16T14:36:33;10.70;;;2.97;;
13483;SDS011;6814;57.786;12.080;2022-10-16T14:39:02;13.13;;;2.93;;
13483;SDS011;6814;57.786;12.080;2022-10-16T14:41:31;10.33;;;2.27;;
13483;SDS011;6814;57.786;12.080;2022-10-16T14:44:01;10.73;;;2.93;;
13483;SDS011;6814;57.786;12.080;2022-10-16T14:46:32;12.93;;;2.00;;
13483;SDS011;6814;57.786;12.080;2022-10-16T14:49:02;11.80;;;2.27;;
13483;SDS011;6814;57.786;12.080;2022-10-16T14:51:40;11.53;;;2.50;;
13483;SDS011;6814;57.786;12.080;2022-10-16T14:54:14;11.80;;;2.67;;
13483;SDS011;6814;57.786;12.080;2022-10-16T14:56:44;11.77;;;2.80;;
13483;SDS011;6814;57.786;12.080;2022-10-16T14:59:12;10.83;;;3.00;;
13483;SDS011;6814;57.786;12.080;2022-10-16T15:01:42;13.13;;;3.07;;
13483;SDS011;6814;57.786;12.080;2022-10-16T15:04:08;10.70;;;2.73;;
13483;SDS011;6814;57.786;12.080;2022-10-16T15:06:35;11.67;;;2.60;;